createdAt,value
2017-08-22T00:01:21.497Z,5.80
2017-08-22T00:03:51.370Z,7.73
2017-08-22T00:06:20.880Z,4.20
2017-08-22T00:08:50.376Z,6.40
2017-08-22T00:11:19.941Z,6.00
2017-08-22T00:13:49.400Z,6.80
2017-08-22T00:16:28.668Z,5.37
2017-08-22T00:19:03.144Z,9.53
2017-08-22T00:21:34.083Z,7.10
2017-08-22T00:24:03.512Z,4.73
2017-08-22T00:26:33.032Z,5.37
2017-08-22T00:29:07.865Z,7.87
2017-08-22T00:31:40.187Z,7.20
2017-08-22T00:34:09.670Z,11.40
2017-08-22T00:36:39.294Z,8.80
2017-08-22T00:39:08.762Z,3.80
2017-08-22T00:41:38.168Z,5.67
2017-08-22T00:44:08.082Z,9.57
2017-08-22T00:46:38.626Z,7.40
2017-08-22T00:49:08.076Z,8.57
2017-08-22T00:51:37.646Z,7.30
2017-08-22T00:54:07.216Z,10.53
2017-08-22T00:56:36.643Z,9.77
2017-08-22T00:59:06.023Z,5.63
2017-08-22T01:01:35.649Z,7.50
2017-08-22T01:04:10.377Z,4.40
2017-08-22T01:06:46.743Z,7.37
2017-08-22T01:09:16.272Z,5.13
2017-08-22T01:11:45.759Z,6.00
2017-08-22T01:14:15.243Z,9.83
2017-08-22T01:16:48.691Z,4.83
2017-08-22T01:19:19.491Z,9.60
2017-08-22T01:21:49.133Z,6.43
2017-08-22T01:24:19.660Z,4.50
2017-08-22T01:26:53.445Z,6.17
2017-08-22T01:29:23.219Z,4.83
2017-08-22T01:31:52.743Z,7.77
2017-08-22T01:34:27.550Z,4.43
2017-08-22T01:37:04.937Z,10.30
2017-08-22T01:39:35.103Z,5.00
2017-08-22T01:42:04.836Z,7.23
2017-08-22T01:44:36.409Z,5.23
2017-08-22T01:47:06.008Z,9.90
2017-08-22T01:49:35.549Z,5.20
2017-08-22T01:52:05.055Z,7.87
2017-08-22T01:54:34.717Z,11.77
2017-08-22T01:57:05.069Z,8.50
2017-08-22T01:59:34.696Z,12.23
2017-08-22T02:02:04.309Z,7.87
2017-08-22T02:04:35.946Z,10.80
2017-08-22T02:07:06.816Z,11.60
2017-08-22T02:09:36.351Z,7.83
2017-08-22T02:12:06.074Z,5.87
2017-08-22T02:14:35.732Z,10.77
2017-08-22T02:17:07.549Z,7.67
2017-08-22T02:19:37.078Z,5.13
2017-08-22T02:22:16.834Z,5.17
2017-08-22T02:24:49.139Z,11.60
2017-08-22T02:27:19.031Z,4.30
2017-08-22T02:29:58.086Z,5.80
2017-08-22T02:32:32.048Z,8.17
2017-08-22T02:35:01.880Z,9.10
2017-08-22T02:37:32.989Z,7.93
2017-08-22T02:40:02.543Z,8.27
2017-08-22T02:42:32.146Z,6.60
2017-08-22T02:45:07.014Z,6.70
2017-08-22T02:47:49.191Z,12.03
2017-08-22T02:50:23.888Z,6.07
2017-08-22T02:52:53.513Z,6.47
2017-08-22T02:55:23.108Z,4.40
2017-08-22T02:57:52.611Z,12.63
2017-08-22T03:00:35.003Z,11.37
2017-08-22T03:03:08.931Z,10.73
2017-08-22T03:05:39.559Z,5.83
2017-08-22T03:08:09.172Z,9.43
2017-08-22T03:10:40.076Z,6.20
2017-08-22T03:13:09.985Z,6.93
2017-08-22T03:15:45.625Z,9.63
2017-08-22T03:18:21.417Z,11.80
2017-08-22T03:20:53.164Z,10.23
2017-08-22T03:23:22.654Z,8.70
2017-08-22T03:25:52.200Z,12.43
2017-08-22T03:28:21.767Z,8.77
2017-08-22T03:31:06.276Z,6.97
2017-08-22T03:33:44.716Z,11.20
2017-08-22T03:36:15.716Z,9.57
2017-08-22T03:38:45.209Z,11.80
2017-08-22T03:41:14.954Z,13.00
2017-08-22T03:43:44.348Z,6.13
2017-08-22T03:46:25.834Z,8.23
2017-08-22T03:49:04.896Z,13.97
2017-08-22T03:51:36.357Z,10.70
2017-08-22T03:54:05.982Z,10.93
2017-08-22T03:56:35.673Z,6.40
2017-08-22T03:59:05.800Z,8.97
2017-08-22T04:01:35.528Z,14.80
2017-08-22T04:04:05.289Z,8.63
2017-08-22T04:06:34.816Z,6.63
2017-08-22T04:09:09.799Z,9.33
2017-08-22T04:11:42.808Z,6.30
2017-08-22T04:14:12.477Z,8.30
2017-08-22T04:16:42.001Z,12.23
2017-08-22T04:19:11.546Z,6.97
2017-08-22T04:21:41.051Z,10.40
2017-08-22T04:24:16.054Z,10.53
2017-08-22T04:26:46.424Z,9.23
2017-08-22T04:29:18.769Z,7.90
2017-08-22T04:31:49.500Z,8.30
2017-08-22T04:34:19.450Z,12.53
2017-08-22T04:36:48.956Z,15.07
2017-08-22T04:39:18.350Z,9.97
2017-08-22T04:41:48.713Z,7.10
2017-08-22T04:44:18.080Z,12.23
2017-08-22T04:46:47.564Z,10.60
2017-08-22T04:49:16.956Z,6.87
2017-08-22T04:52:26.691Z,8.57
2017-08-22T04:55:02.309Z,8.00
2017-08-22T04:57:34.379Z,11.63
2017-08-22T05:00:04.783Z,10.43
2017-08-22T05:02:34.697Z,8.77
2017-08-22T05:05:04.395Z,11.63
2017-08-22T05:07:52.596Z,12.90
2017-08-22T05:10:29.045Z,12.03
2017-08-22T05:13:00.712Z,12.67
2017-08-22T05:15:30.919Z,12.43
2017-08-22T05:18:00.389Z,13.07
2017-08-22T05:20:29.837Z,9.70
2017-08-22T05:22:59.724Z,6.77
2017-08-22T05:25:29.485Z,9.30
2017-08-22T05:27:59.095Z,12.60
2017-08-22T05:30:29.612Z,20.20
2017-08-22T05:32:59.260Z,8.40
2017-08-22T05:35:28.705Z,8.83
2017-08-22T05:37:57.997Z,16.47
2017-08-22T05:40:27.372Z,10.27
2017-08-22T05:42:56.745Z,20.83
2017-08-22T05:45:26.106Z,16.03
2017-08-22T05:47:55.423Z,6.10
2017-08-22T05:50:24.893Z,7.30
2017-08-22T05:52:54.683Z,6.43
2017-08-22T05:55:24.049Z,10.33
2017-08-22T05:57:53.781Z,14.70
2017-08-22T06:00:23.168Z,11.00
2017-08-22T06:02:52.487Z,12.40
2017-08-22T06:05:21.985Z,11.03
2017-08-22T06:07:51.285Z,7.60
2017-08-22T06:10:20.660Z,8.30
2017-08-22T06:12:50.057Z,11.60
2017-08-22T06:15:19.436Z,11.57
2017-08-22T06:17:51.568Z,7.73
2017-08-22T06:20:21.037Z,8.20
2017-08-22T06:22:50.443Z,5.90
2017-08-22T06:25:19.881Z,4.90
2017-08-22T06:27:49.237Z,6.07
2017-08-22T06:30:18.661Z,5.43
2017-08-22T06:32:47.990Z,5.67
2017-08-22T06:35:17.409Z,7.53
2017-08-22T06:37:47.301Z,7.53
2017-08-22T06:40:16.889Z,5.93
2017-08-22T06:42:46.248Z,12.20
2017-08-22T06:45:15.731Z,5.17
2017-08-22T06:47:45.127Z,13.13
2017-08-22T06:50:14.494Z,8.17
2017-08-22T06:52:43.850Z,5.73
2017-08-22T06:55:13.203Z,7.20
2017-08-22T06:57:42.543Z,5.63
2017-08-22T07:00:14.158Z,6.10
2017-08-22T07:02:43.672Z,11.67
2017-08-22T07:05:13.208Z,8.30
2017-08-22T07:07:42.537Z,6.90
2017-08-22T07:10:11.982Z,6.80
2017-08-22T07:12:42.125Z,6.30
2017-08-22T07:15:11.542Z,9.00
2017-08-22T07:17:40.943Z,5.67
2017-08-22T07:20:13.014Z,5.13
2017-08-22T07:22:42.567Z,9.20
2017-08-22T07:27:49.252Z,5.43
2017-08-22T07:30:18.792Z,7.67
2017-08-22T07:32:49.056Z,9.73
2017-08-22T07:35:19.381Z,7.47
2017-08-22T07:37:48.765Z,7.80
2017-08-22T07:40:18.229Z,12.80
2017-08-22T07:42:47.603Z,13.77
2017-08-22T07:45:17.718Z,8.10
2017-08-22T07:47:47.957Z,13.47
2017-08-22T07:50:18.669Z,6.97
2017-08-22T07:52:50.698Z,5.30
2017-08-22T07:55:20.338Z,7.30
2017-08-22T07:57:49.704Z,3.83
2017-08-22T08:00:20.907Z,5.30
2017-08-22T08:02:50.817Z,5.17
2017-08-22T08:05:20.173Z,8.13
2017-08-22T08:07:49.576Z,10.43
2017-08-22T08:10:18.960Z,7.00
2017-08-22T08:12:48.751Z,9.17
2017-08-22T08:15:18.559Z,5.30
2017-08-22T08:17:48.504Z,17.23
2017-08-22T08:20:17.896Z,9.77
2017-08-22T08:22:47.728Z,7.27
2017-08-22T08:26:31.952Z,6.10
2017-08-22T08:29:02.297Z,4.07
2017-08-22T08:31:31.858Z,7.53
2017-08-22T08:34:01.449Z,5.53
2017-08-22T08:36:30.824Z,7.60
2017-08-22T08:39:00.419Z,4.37
2017-08-22T08:41:29.776Z,7.93
2017-08-22T08:44:00.246Z,5.63
2017-08-22T08:46:30.145Z,6.20
2017-08-22T08:48:59.502Z,9.63
2017-08-22T08:51:29.042Z,10.03
2017-08-22T08:53:58.594Z,7.60
2017-08-22T08:56:28.365Z,11.87
2017-08-22T08:58:58.339Z,11.17
2017-08-22T09:01:27.997Z,11.23
2017-08-22T09:03:57.387Z,6.73
2017-08-22T09:06:26.838Z,5.20
2017-08-22T09:08:57.124Z,5.27
2017-08-22T09:11:26.647Z,5.00
2017-08-22T09:13:56.908Z,9.40
2017-08-22T09:16:26.524Z,12.13
2017-08-22T09:18:55.942Z,8.37
2017-08-22T09:21:25.552Z,6.53
2017-08-22T09:23:54.922Z,2.73
2017-08-22T09:26:24.516Z,6.90
2017-08-22T09:28:53.950Z,6.30
2017-08-22T09:31:23.402Z,6.20
2017-08-22T09:33:52.883Z,8.40
2017-08-22T09:36:22.326Z,3.53
2017-08-22T09:38:52.796Z,10.87
2017-08-22T09:41:22.757Z,3.43
2017-08-22T09:43:52.579Z,5.80
2017-08-22T09:46:22.063Z,5.63
2017-08-22T09:48:51.486Z,7.93
2017-08-22T09:51:20.864Z,3.77
2017-08-22T09:53:50.188Z,6.07
2017-08-22T09:56:19.648Z,3.43
2017-08-22T09:58:48.947Z,4.40
2017-08-22T10:01:18.364Z,4.93
2017-08-22T10:03:47.700Z,3.20
2017-08-22T10:06:17.202Z,4.80
2017-08-22T10:08:47.072Z,4.33
2017-08-22T10:11:16.441Z,7.90
2017-08-22T10:13:47.298Z,5.13
2017-08-22T10:16:21.957Z,7.70
2017-08-22T10:18:53.244Z,4.30
2017-08-22T10:21:23.134Z,9.83
2017-08-22T10:23:53.006Z,6.23
2017-08-22T10:26:22.557Z,4.50
2017-08-22T10:28:51.903Z,6.17
2017-08-22T10:31:21.280Z,5.90
2017-08-22T10:33:51.396Z,6.97
2017-08-22T10:36:20.809Z,5.50
2017-08-22T10:38:50.168Z,5.43
2017-08-22T10:41:19.592Z,3.03
2017-08-22T10:43:48.989Z,4.63
2017-08-22T10:46:18.434Z,7.10
2017-08-22T10:48:47.839Z,4.17
2017-08-22T10:51:17.240Z,3.10
2017-08-22T10:53:46.553Z,4.43
2017-08-22T10:56:15.936Z,3.30
2017-08-22T10:58:45.316Z,4.80
2017-08-22T11:01:14.778Z,2.53
2017-08-22T11:03:44.198Z,3.90
2017-08-22T11:06:13.583Z,3.13
2017-08-22T11:08:42.939Z,2.70
2017-08-22T11:11:12.617Z,4.10
2017-08-22T11:13:42.185Z,4.97
2017-08-22T11:16:14.070Z,7.63
2017-08-22T11:18:43.767Z,1.93
2017-08-22T11:21:13.757Z,2.63
2017-08-22T11:23:43.091Z,6.13
2017-08-22T11:26:12.509Z,3.23
2017-08-22T11:28:41.849Z,2.57
2017-08-22T11:31:12.187Z,3.80
2017-08-22T11:33:41.715Z,4.00
2017-08-22T11:36:11.176Z,5.87
2017-08-22T11:38:40.609Z,3.90
2017-08-22T11:41:10.026Z,2.57
2017-08-22T11:43:39.694Z,4.87
2017-08-22T11:46:09.181Z,2.73
2017-08-22T11:48:38.615Z,4.33
2017-08-22T11:51:08.021Z,6.20
2017-08-22T11:53:37.424Z,2.50
2017-08-22T11:56:06.749Z,3.53
2017-08-22T11:58:36.152Z,5.57
2017-08-22T12:01:06.012Z,3.97
2017-08-22T12:03:35.468Z,9.10
2017-08-22T12:06:04.858Z,2.70
2017-08-22T12:08:34.278Z,4.83
2017-08-22T12:11:04.075Z,2.43
2017-08-22T12:13:33.455Z,5.80
2017-08-22T12:16:03.551Z,5.37
2017-08-22T12:18:33.413Z,2.70
2017-08-22T12:21:02.921Z,4.60
2017-08-22T12:23:32.302Z,4.10
2017-08-22T12:26:01.966Z,5.50
2017-08-22T12:28:31.361Z,4.33
2017-08-22T12:31:00.806Z,4.30
2017-08-22T12:33:30.742Z,5.30
2017-08-22T12:36:00.255Z,3.97
2017-08-22T12:38:29.708Z,6.87
2017-08-22T12:40:59.108Z,8.70
2017-08-22T12:43:30.709Z,6.23
2017-08-22T12:46:01.736Z,5.03
2017-08-22T12:48:31.123Z,3.60
2017-08-22T12:51:00.732Z,5.63
2017-08-22T12:53:30.106Z,2.70
2017-08-22T12:56:00.090Z,2.97
2017-08-22T12:58:30.253Z,4.23
2017-08-22T13:00:59.926Z,6.20
2017-08-22T13:03:29.372Z,5.17
2017-08-22T13:05:58.943Z,4.87
2017-08-22T13:08:28.717Z,1.90
2017-08-22T13:10:58.322Z,6.00
2017-08-22T13:13:27.652Z,1.80
2017-08-22T13:15:57.296Z,3.00
2017-08-22T13:18:26.715Z,5.37
2017-08-22T13:20:56.368Z,6.77
2017-08-22T13:23:26.980Z,3.97
2017-08-22T13:25:56.713Z,4.70
2017-08-22T13:28:28.885Z,3.57
2017-08-22T13:30:58.465Z,3.70
2017-08-22T13:33:28.935Z,5.57
2017-08-22T13:35:58.821Z,7.80
2017-08-22T13:38:28.788Z,1.90
2017-08-22T13:40:58.237Z,2.47
2017-08-22T13:43:27.593Z,3.70
2017-08-22T13:45:57.007Z,3.93
2017-08-22T13:48:26.935Z,2.40
2017-08-22T13:50:59.000Z,2.90
2017-08-22T13:53:29.588Z,3.80
2017-08-22T13:55:59.999Z,4.47
2017-08-22T13:58:34.212Z,2.60
2017-08-22T14:01:04.181Z,2.90
2017-08-22T14:03:36.354Z,6.50
2017-08-22T14:06:07.593Z,7.27
2017-08-22T14:08:58.032Z,4.47
2017-08-22T14:11:30.568Z,5.43
2017-08-22T14:14:00.198Z,3.93
2017-08-22T14:16:29.870Z,4.03
2017-08-22T14:18:59.266Z,5.03
2017-08-22T14:21:28.753Z,4.10
2017-08-22T14:23:58.164Z,9.40
2017-08-22T14:26:28.510Z,2.70
2017-08-22T14:28:58.268Z,8.50
2017-08-22T14:31:28.236Z,5.07
2017-08-22T14:33:57.953Z,4.80
2017-08-22T14:36:30.460Z,1.83
2017-08-22T14:39:00.342Z,4.07
2017-08-22T14:41:29.901Z,4.13
2017-08-22T14:43:59.427Z,7.60
2017-08-22T14:46:28.849Z,6.73
2017-08-22T14:49:04.830Z,5.53
2017-08-22T14:51:36.235Z,8.20
2017-08-22T14:54:08.438Z,3.77
2017-08-22T14:56:38.050Z,4.43
2017-08-22T14:59:07.470Z,2.70
2017-08-22T15:01:36.961Z,2.30
2017-08-22T15:04:07.299Z,2.50
2017-08-22T15:06:36.794Z,4.43
2017-08-22T15:09:06.229Z,7.57
2017-08-22T15:11:37.388Z,2.93
2017-08-22T15:14:14.412Z,3.57
2017-08-22T15:16:44.025Z,6.53
2017-08-22T15:19:13.440Z,3.20
2017-08-22T15:21:43.250Z,5.93
2017-08-22T15:24:14.096Z,6.43
2017-08-22T15:26:45.793Z,5.40
2017-08-22T15:29:16.891Z,6.67
2017-08-22T15:31:48.716Z,4.13
2017-08-22T15:34:22.664Z,6.70
2017-08-22T15:36:53.084Z,1.47
2017-08-22T15:39:25.251Z,2.20
2017-08-22T15:41:58.377Z,2.20
2017-08-22T15:44:29.105Z,5.03
2017-08-22T15:46:58.758Z,5.13
2017-08-22T15:49:32.668Z,4.60
2017-08-22T15:52:02.123Z,4.83
2017-08-22T15:54:31.534Z,3.93
2017-08-22T15:57:00.958Z,2.57
2017-08-22T15:59:30.283Z,8.00
2017-08-22T16:02:01.673Z,2.70
2017-08-22T16:04:32.688Z,3.73
2017-08-22T16:07:04.331Z,2.37
2017-08-22T16:09:33.848Z,5.07
2017-08-22T16:12:04.800Z,5.20
2017-08-22T16:14:34.243Z,3.80
2017-08-22T16:17:03.817Z,8.67
2017-08-22T16:19:33.422Z,4.50
2017-08-22T16:22:02.814Z,5.10
2017-08-22T16:24:34.256Z,3.43
2017-08-22T16:27:03.759Z,5.60
2017-08-22T16:29:33.958Z,3.23
2017-08-22T16:34:47.365Z,4.17
2017-08-22T16:37:17.176Z,6.17
2017-08-22T16:39:46.564Z,2.50
2017-08-22T16:42:15.987Z,4.97
2017-08-22T16:44:45.462Z,4.10
2017-08-22T16:47:14.851Z,4.83
2017-08-22T16:49:45.289Z,3.13
2017-08-22T16:52:16.563Z,3.77
2017-08-22T16:54:47.376Z,2.07
2017-08-22T16:57:17.221Z,4.90
2017-08-22T16:59:47.290Z,4.13
2017-08-22T17:02:16.712Z,8.20
2017-08-22T17:04:47.198Z,3.47
2017-08-22T17:07:18.174Z,5.80
2017-08-22T17:09:47.505Z,4.00
2017-08-22T17:12:17.014Z,2.90
2017-08-22T17:14:46.526Z,6.07
2017-08-22T17:17:16.065Z,3.43
2017-08-22T17:19:47.366Z,6.57
2017-08-22T17:22:17.908Z,4.47
2017-08-22T17:24:47.293Z,3.57
2017-08-22T17:27:16.807Z,8.47
2017-08-22T17:29:46.451Z,3.63
2017-08-22T17:32:15.908Z,4.00
2017-08-22T17:34:45.275Z,3.90
2017-08-22T17:37:14.709Z,2.80
2017-08-22T17:39:44.503Z,3.53
2017-08-22T17:42:14.041Z,3.23
2017-08-22T17:44:43.499Z,7.93
2017-08-22T17:47:15.146Z,3.40
2017-08-22T17:49:44.468Z,3.37
2017-08-22T17:52:13.970Z,3.93
2017-08-22T17:54:43.415Z,3.97
2017-08-22T17:57:12.795Z,4.43
2017-08-22T17:59:42.290Z,3.93
2017-08-22T18:02:19.720Z,3.73
2017-08-22T18:07:58.505Z,5.83
2017-08-22T18:10:28.093Z,2.97
2017-08-22T18:12:57.462Z,3.13
2017-08-22T18:15:27.231Z,4.53
2017-08-22T18:17:56.813Z,3.70
2017-08-22T18:20:27.300Z,4.67
2017-08-22T18:22:57.222Z,5.50
2017-08-22T18:25:26.899Z,4.50
2017-08-22T18:27:56.900Z,3.50
2017-08-22T18:30:41.239Z,6.33
2017-08-22T18:33:13.151Z,5.70
2017-08-22T18:35:45.790Z,8.80
2017-08-22T18:38:16.664Z,6.97
2017-08-22T18:40:46.278Z,12.60
2017-08-22T18:43:40.598Z,20.07
2017-08-22T18:46:10.040Z,17.67
2017-08-22T18:48:39.462Z,19.10
2017-08-22T18:51:08.957Z,22.27
2017-08-22T18:53:38.315Z,28.47
2017-08-22T18:56:07.732Z,24.30
2017-08-22T18:58:37.849Z,28.47
2017-08-22T19:01:07.274Z,27.10
2017-08-22T19:03:36.625Z,20.53
2017-08-22T19:06:06.046Z,16.80
2017-08-22T19:08:35.476Z,17.33
2017-08-22T19:11:04.895Z,28.27
2017-08-22T19:13:34.967Z,17.60
2017-08-22T19:16:04.435Z,16.57
2017-08-22T19:18:33.785Z,17.10
2017-08-22T19:21:03.132Z,26.43
2017-08-22T19:23:32.504Z,29.53
2017-08-22T19:26:01.987Z,18.00
2017-08-22T19:28:31.381Z,23.50
2017-08-22T19:31:01.036Z,15.60
2017-08-22T19:33:30.341Z,19.00
2017-08-22T19:35:59.767Z,24.30
2017-08-22T19:38:29.178Z,33.30
2017-08-22T19:40:58.591Z,32.70
2017-08-22T19:43:28.108Z,28.47
2017-08-22T19:45:57.628Z,24.93
2017-08-22T19:48:27.060Z,24.40
2017-08-22T19:50:57.143Z,26.40
2017-08-22T19:53:26.824Z,25.50
2017-08-22T19:55:57.048Z,14.47
2017-08-22T19:58:27.000Z,22.70
2017-08-22T20:00:56.459Z,21.50
2017-08-22T20:03:28.520Z,20.20
2017-08-22T20:05:58.001Z,16.03
2017-08-22T20:08:27.356Z,10.17
2017-08-22T20:10:56.915Z,8.40
2017-08-22T20:13:26.783Z,14.57
2017-08-22T20:15:56.302Z,11.63
2017-08-22T20:18:25.693Z,8.97
2017-08-22T20:20:55.298Z,8.90
2017-08-22T20:23:28.772Z,8.70
2017-08-22T20:25:58.376Z,9.90
2017-08-22T20:28:28.172Z,12.97
2017-08-22T20:30:57.981Z,9.97
2017-08-22T20:33:27.519Z,8.80
2017-08-22T20:35:57.606Z,10.90
2017-08-22T20:38:27.068Z,10.00
2017-08-22T20:40:56.662Z,8.70
2017-08-22T20:43:26.314Z,10.87
2017-08-22T20:45:55.765Z,9.00
2017-08-22T20:48:25.333Z,8.90
2017-08-22T20:50:54.862Z,10.50
2017-08-22T20:53:24.365Z,9.20
2017-08-22T20:55:54.850Z,7.20
2017-08-22T20:58:24.395Z,7.60
2017-08-22T21:00:54.889Z,11.30
2017-08-22T21:03:24.995Z,7.60
2017-08-22T21:05:54.963Z,9.73
2017-08-22T21:08:24.376Z,8.10
2017-08-22T21:10:54.144Z,9.33
2017-08-22T21:13:23.486Z,8.77
2017-08-22T21:15:53.293Z,8.03
2017-08-22T21:18:24.162Z,7.00
2017-08-22T21:20:53.841Z,9.30
2017-08-22T21:23:23.378Z,7.07
2017-08-22T21:25:53.062Z,9.33
2017-08-22T21:28:22.648Z,11.37
2017-08-22T21:30:52.087Z,6.97
2017-08-22T21:33:27.421Z,11.07
2017-08-22T21:35:56.832Z,8.50
2017-08-22T21:38:26.414Z,12.37
2017-08-22T21:40:56.730Z,10.00
2017-08-22T21:43:26.728Z,9.27
2017-08-22T21:45:57.067Z,13.80
2017-08-22T21:48:26.531Z,12.63
2017-08-22T21:50:56.267Z,7.20
2017-08-22T21:53:25.781Z,9.80
2017-08-22T21:55:56.924Z,10.37
2017-08-22T21:58:27.478Z,9.57
2017-08-22T22:00:59.954Z,13.60
2017-08-22T22:03:29.461Z,11.70
2017-08-22T22:05:59.642Z,11.60
2017-08-22T22:08:29.892Z,8.30
2017-08-22T22:10:59.316Z,13.03
2017-08-22T22:13:29.775Z,9.90
2017-08-22T22:15:59.458Z,13.07
2017-08-22T22:18:29.339Z,8.13
2017-08-22T22:20:58.899Z,7.67
2017-08-22T22:23:28.238Z,9.30
2017-08-22T22:25:57.745Z,11.07
2017-08-22T22:28:27.123Z,11.63
2017-08-22T22:30:56.650Z,8.80
2017-08-22T22:33:25.988Z,12.37
2017-08-22T22:35:56.200Z,9.20
2017-08-22T22:38:25.817Z,10.33
2017-08-22T22:40:55.514Z,8.87
2017-08-22T22:43:25.641Z,11.97
2017-08-22T22:45:56.764Z,12.23
2017-08-22T22:48:29.472Z,11.00
2017-08-22T22:51:00.185Z,17.07
2017-08-22T22:53:30.283Z,9.53
2017-08-22T22:55:59.625Z,10.60
2017-08-22T22:58:32.436Z,10.03
2017-08-22T23:01:05.076Z,10.50
2017-08-22T23:03:34.593Z,12.00
2017-08-22T23:06:04.005Z,14.63
2017-08-22T23:08:34.226Z,10.47
2017-08-22T23:11:03.720Z,10.20
2017-08-22T23:13:36.656Z,13.30
2017-08-22T23:16:06.639Z,10.00
2017-08-22T23:18:35.945Z,11.13
2017-08-22T23:21:05.291Z,7.97
2017-08-22T23:23:34.620Z,11.17
2017-08-22T23:26:03.981Z,7.87
2017-08-22T23:28:33.304Z,10.40
2017-08-22T23:31:02.671Z,9.13
2017-08-22T23:33:32.720Z,10.10
2017-08-22T23:36:02.292Z,8.33
2017-08-22T23:38:31.995Z,9.07
2017-08-22T23:41:02.389Z,7.70
2017-08-22T23:43:36.156Z,8.70
2017-08-22T23:46:08.314Z,9.90
2017-08-22T23:49:40.613Z,8.97
2017-08-22T23:52:10.455Z,5.87
2017-08-22T23:54:45.337Z,7.17
2017-08-22T23:57:15.514Z,7.67
2017-08-22T23:59:45.178Z,11.23
